sensor_id;sensor_type;location;lat;lon;timestamp;pressure;altitude;pressure_sealevel;temperature;humidity
19526;BME280;9907;42.676;26.348;2023-01-29T00:01:46;99068.63;;;2.02;100.00
19526;BME280;9907;42.676;26.348;2023-01-29T00:04:12;99064.13;;;2.04;100.00
19526;BME280;9907;42.676;26.348;2023-01-29T00:06:37;99067.13;;;2.13;100.00
19526;BME280;9907;42.676;26.348;2023-01-29T00:09:04;99061.16;;;2.10;100.00
19526;BME280;9907;42.676;26.348;2023-01-29T00:11:29;99063.69;;;2.11;100.00
19526;BME280;9907;42.676;26.348;2023-01-29T00:13:56;99061.84;;;2.13;100.00
19526;BME280;9907;42.676;26.348;2023-01-29T00:16:22;99069.66;;;2.15;100.00
19526;BME280;9907;42.676;26.348;2023-01-29T00:18:48;99064.13;;;2.04;100.00
19526;BME280;9907;42.676;26.348;2023-01-29T00:21:15;99063.97;;;2.07;100.00
19526;BME280;9907;42.676;26.348;2023-01-29T00:23:42;99065.66;;;2.08;100.00
19526;BME280;9907;42.676;26.348;2023-01-29T00:26:08;99058.44;;;2.11;100.00
19526;BME280;9907;42.676;26.348;2023-01-29T00:28:34;99067.97;;;2.14;100.00
19526;BME280;9907;42.676;26.348;2023-01-29T00:31:10;99067.69;;;2.18;100.00
19526;BME280;9907;42.676;26.348;2023-01-29T00:33:36;99068.56;;;2.19;100.00
19526;BME280;9907;42.676;26.348;2023-01-29T00:36:06;99061.66;;;2.01;100.00
19526;BME280;9907;42.676;26.348;2023-01-29T00:38:33;99064.72;;;2.09;100.00
19526;BME280;9907;42.676;26.348;2023-01-29T00:41:13;99067.97;;;2.14;100.00
19526;BME280;9907;42.676;26.348;2023-01-29T00:43:58;99069.38;;;2.04;100.00
19526;BME280;9907;42.676;26.348;2023-01-29T00:46:43;99072.59;;;1.93;100.00
19526;BME280;9907;42.676;26.348;2023-01-29T00:49:08;99078.56;;;1.96;100.00
19526;BME280;9907;42.676;26.348;2023-01-29T00:51:35;99074.72;;;1.86;100.00
19526;BME280;9907;42.676;26.348;2023-01-29T00:54:01;99081.88;;;1.84;100.00
19526;BME280;9907;42.676;26.348;2023-01-29T00:56:29;99091.38;;;1.87;100.00
19526;BME280;9907;42.676;26.348;2023-01-29T00:58:55;99092.94;;;1.91;100.00
19526;BME280;9907;42.676;26.348;2023-01-29T01:01:21;99099.81;;;1.93;100.00
19526;BME280;9907;42.676;26.348;2023-01-29T01:04:09;99085.38;;;2.01;100.00
19526;BME280;9907;42.676;26.348;2023-01-29T01:06:38;99096.50;;;1.90;100.00
19526;BME280;9907;42.676;26.348;2023-01-29T01:09:05;99107.72;;;1.93;100.00
19526;BME280;9907;42.676;26.348;2023-01-29T01:11:49;99096.25;;;1.94;100.00
19526;BME280;9907;42.676;26.348;2023-01-29T01:14:17;99107.94;;;1.73;100.00
19526;BME280;9907;42.676;26.348;2023-01-29T01:16:44;99101.84;;;1.88;100.00
19526;BME280;9907;42.676;26.348;2023-01-29T01:19:11;99108.75;;;1.91;100.00
19526;BME280;9907;42.676;26.348;2023-01-29T01:21:37;99109.41;;;1.94;100.00
19526;BME280;9907;42.676;26.348;2023-01-29T01:24:02;99110.19;;;1.96;100.00
19526;BME280;9907;42.676;26.348;2023-01-29T01:26:30;99112.81;;;1.81;100.00
19526;BME280;9907;42.676;26.348;2023-01-29T01:28:57;99117.91;;;1.84;100.00
19526;BME280;9907;42.676;26.348;2023-01-29T01:31:23;99116.34;;;1.80;100.00
19526;BME280;9907;42.676;26.348;2023-01-29T01:33:48;99119.56;;;1.85;100.00
19526;BME280;9907;42.676;26.348;2023-01-29T01:36:16;99119.97;;;1.94;100.00
19526;BME280;9907;42.676;26.348;2023-01-29T01:38:42;99123.28;;;1.98;100.00
19526;BME280;9907;42.676;26.348;2023-01-29T01:41:10;99123.00;;;1.87;100.00
19526;BME280;9907;42.676;26.348;2023-01-29T01:43:56;99124.03;;;1.84;100.00
19526;BME280;9907;42.676;26.348;2023-01-29T01:46:24;99122.75;;;1.91;100.00
19526;BME280;9907;42.676;26.348;2023-01-29T01:49:00;99124.84;;;1.85;100.00
19526;BME280;9907;42.676;26.348;2023-01-29T01:51:29;99127.34;;;1.88;100.00
19526;BME280;9907;42.676;26.348;2023-01-29T01:54:00;99122.16;;;1.86;100.00
19526;BME280;9907;42.676;26.348;2023-01-29T01:56:31;99128.88;;;1.92;100.00
19526;BME280;9907;42.676;26.348;2023-01-29T01:59:05;99136.25;;;1.85;100.00
19526;BME280;9907;42.676;26.348;2023-01-29T02:01:32;99134.06;;;1.93;100.00
19526;BME280;9907;42.676;26.348;2023-01-29T02:04:02;99131.75;;;1.87;100.00
19526;BME280;9907;42.676;26.348;2023-01-29T02:06:47;99130.03;;;1.86;100.00
19526;BME280;9907;42.676;26.348;2023-01-29T02:09:43;99134.00;;;1.78;100.00
19526;BME280;9907;42.676;26.348;2023-01-29T02:12:12;99135.94;;;1.91;100.00
19526;BME280;9907;42.676;26.348;2023-01-29T02:14:39;99136.53;;;1.96;100.00
19526;BME280;9907;42.676;26.348;2023-01-29T02:17:11;99135.31;;;1.86;100.00
19526;BME280;9907;42.676;26.348;2023-01-29T02:30:22;99149.22;;;2.06;100.00
19526;BME280;9907;42.676;26.348;2023-01-29T02:35:30;99157.69;;;1.95;100.00
19526;BME280;9907;42.676;26.348;2023-01-29T02:40:55;99157.69;;;1.95;100.00
19526;BME280;9907;42.676;26.348;2023-01-29T02:43:32;99166.25;;;1.83;100.00
19526;BME280;9907;42.676;26.348;2023-01-29T02:46:22;99166.97;;;1.69;100.00
19526;BME280;9907;42.676;26.348;2023-01-29T02:48:54;99174.22;;;1.64;100.00
19526;BME280;9907;42.676;26.348;2023-01-29T02:51:29;99168.22;;;1.62;100.00
19526;BME280;9907;42.676;26.348;2023-01-29T02:54:06;99163.75;;;1.63;100.00
19526;BME280;9907;42.676;26.348;2023-01-29T02:56:42;99172.28;;;1.68;100.00
19526;BME280;9907;42.676;26.348;2023-01-29T02:59:15;99168.63;;;1.70;100.00
19526;BME280;9907;42.676;26.348;2023-01-29T03:01:52;99167.94;;;1.67;100.00
19526;BME280;9907;42.676;26.348;2023-01-29T03:04:26;99171.97;;;1.74;100.00
19526;BME280;9907;42.676;26.348;2023-01-29T03:07:06;99166.16;;;1.67;100.00
19526;BME280;9907;42.676;26.348;2023-01-29T03:09:44;99171.75;;;1.61;100.00
19526;BME280;9907;42.676;26.348;2023-01-29T03:12:19;99177.41;;;1.54;100.00
19526;BME280;9907;42.676;26.348;2023-01-29T03:15:01;99178.13;;;1.57;100.00
19526;BME280;9907;42.676;26.348;2023-01-29T03:17:44;99183.16;;;1.62;100.00
19526;BME280;9907;42.676;26.348;2023-01-29T03:20:16;99174.59;;;1.74;100.00
19526;BME280;9907;42.676;26.348;2023-01-29T03:22:45;99178.66;;;1.64;100.00
19526;BME280;9907;42.676;26.348;2023-01-29T03:25:17;99184.94;;;1.61;100.00
19526;BME280;9907;42.676;26.348;2023-01-29T03:28:03;99185.09;;;1.58;100.00
19526;BME280;9907;42.676;26.348;2023-01-29T03:31:02;99192.81;;;1.61;100.00
19526;BME280;9907;42.676;26.348;2023-01-29T03:36:26;99186.94;;;1.56;100.00
19526;BME280;9907;42.676;26.348;2023-01-29T03:39:03;99187.78;;;1.57;100.00
19526;BME280;9907;42.676;26.348;2023-01-29T03:41:35;99189.66;;;1.55;100.00
19526;BME280;9907;42.676;26.348;2023-01-29T03:47:17;99184.31;;;1.39;100.00
19526;BME280;9907;42.676;26.348;2023-01-29T03:52:49;99198.22;;;1.24;100.00
19526;BME280;9907;42.676;26.348;2023-01-29T03:55:22;99196.44;;;1.24;100.00
19526;BME280;9907;42.676;26.348;2023-01-29T03:58:04;99202.63;;;1.23;100.00
19526;BME280;9907;42.676;26.348;2023-01-29T04:03:20;99200.69;;;1.10;100.00
19526;BME280;9907;42.676;26.348;2023-01-29T04:06:03;99198.06;;;1.10;100.00
19526;BME280;9907;42.676;26.348;2023-01-29T04:08:37;99197.91;;;1.13;100.00
19526;BME280;9907;42.676;26.348;2023-01-29T04:11:08;99207.19;;;1.03;100.00
19526;BME280;9907;42.676;26.348;2023-01-29T04:13:37;99205.53;;;1.00;100.00
19526;BME280;9907;42.676;26.348;2023-01-29T04:16:05;99208.41;;;0.95;100.00
19526;BME280;9907;42.676;26.348;2023-01-29T04:18:33;99207.69;;;0.92;100.00
19526;BME280;9907;42.676;26.348;2023-01-29T04:20:59;99204.06;;;0.94;100.00
19526;BME280;9907;42.676;26.348;2023-01-29T04:23:26;99216.13;;;0.98;100.00
19526;BME280;9907;42.676;26.348;2023-01-29T04:31:27;99220.59;;;0.96;100.00
19526;BME280;9907;42.676;26.348;2023-01-29T04:37:24;99222.41;;;0.96;100.00
19526;BME280;9907;42.676;26.348;2023-01-29T04:39:43;99217.91;;;0.98;100.00
19526;BME280;9907;42.676;26.348;2023-01-29T04:55:20;99232.31;;;1.08;100.00
19526;BME280;9907;42.676;26.348;2023-01-29T05:00:25;99234.88;;;1.10;100.00
19526;BME280;9907;42.676;26.348;2023-01-29T05:02:53;99242.63;;;1.13;100.00
19526;BME280;9907;42.676;26.348;2023-01-29T05:05:19;99234.34;;;1.03;100.00
19526;BME280;9907;42.676;26.348;2023-01-29T05:07:46;99245.63;;;1.05;100.00
19526;BME280;9907;42.676;26.348;2023-01-29T05:10:15;99257.06;;;1.04;100.00
19526;BME280;9907;42.676;26.348;2023-01-29T05:12:45;99255.22;;;1.06;100.00
19526;BME280;9907;42.676;26.348;2023-01-29T05:15:19;99255.94;;;1.10;100.00
19526;BME280;9907;42.676;26.348;2023-01-29T05:17:47;99255.44;;;1.02;100.00
19526;BME280;9907;42.676;26.348;2023-01-29T05:20:12;99257.22;;;1.01;100.00
19526;BME280;9907;42.676;26.348;2023-01-29T05:22:39;99251.75;;;1.06;100.00
19526;BME280;9907;42.676;26.348;2023-01-29T05:25:19;99262.31;;;1.04;100.00
19526;BME280;9907;42.676;26.348;2023-01-29T05:27:48;99256.84;;;1.09;100.00
19526;BME280;9907;42.676;26.348;2023-01-29T05:30:37;99257.22;;;1.01;100.00
19526;BME280;9907;42.676;26.348;2023-01-29T05:33:08;99269.16;;;1.08;100.00
19526;BME280;9907;42.676;26.348;2023-01-29T05:35:35;99260.34;;;1.09;100.00
19526;BME280;9907;42.676;26.348;2023-01-29T05:38:01;99268.03;;;1.14;100.00
19526;BME280;9907;42.676;26.348;2023-01-29T05:40:26;99268.88;;;1.14;100.00
19526;BME280;9907;42.676;26.348;2023-01-29T05:42:52;99271.56;;;1.13;100.00
19526;BME280;9907;42.676;26.348;2023-01-29T05:45:18;99271.56;;;1.13;100.00
19526;BME280;9907;42.676;26.348;2023-01-29T05:47:44;99270.31;;;1.03;100.00
19526;BME280;9907;42.676;26.348;2023-01-29T05:50:11;99277.41;;;1.01;100.00
19526;BME280;9907;42.676;26.348;2023-01-29T05:52:36;99279.28;;;0.98;100.00
19526;BME280;9907;42.676;26.348;2023-01-29T05:55:02;99282.97;;;0.94;100.00
19526;BME280;9907;42.676;26.348;2023-01-29T05:57:28;99293.50;;;0.94;100.00
19526;BME280;9907;42.676;26.348;2023-01-29T05:59:53;99298.41;;;1.02;100.00
19526;BME280;9907;42.676;26.348;2023-01-29T06:02:19;99303.09;;;0.95;100.00
19526;BME280;9907;42.676;26.348;2023-01-29T06:04:45;99306.50;;;0.97;100.00
19526;BME280;9907;42.676;26.348;2023-01-29T06:07:10;99311.84;;;0.96;100.00
19526;BME280;9907;42.676;26.348;2023-01-29T06:09:36;99311.75;;;0.97;100.00
19526;BME280;9907;42.676;26.348;2023-01-29T06:12:01;99306.84;;;0.90;100.00
19526;BME280;9907;42.676;26.348;2023-01-29T06:14:27;99315.94;;;1.02;100.00
19526;BME280;9907;42.676;26.348;2023-01-29T06:16:53;99312.66;;;0.96;100.00
19526;BME280;9907;42.676;26.348;2023-01-29T06:19:18;99316.38;;;0.92;100.00
19526;BME280;9907;42.676;26.348;2023-01-29T06:21:44;99323.19;;;0.96;100.00
19526;BME280;9907;42.676;26.348;2023-01-29T06:24:10;99324.00;;;0.98;100.00
19526;BME280;9907;42.676;26.348;2023-01-29T06:26:35;99328.97;;;1.05;100.00
19526;BME280;9907;42.676;26.348;2023-01-29T06:29:01;99323.69;;;1.05;100.00
19526;BME280;9907;42.676;26.348;2023-01-29T06:31:26;99331.72;;;1.02;100.00
19526;BME280;9907;42.676;26.348;2023-01-29T06:33:52;99334.72;;;0.94;100.00
19526;BME280;9907;42.676;26.348;2023-01-29T06:36:17;99342.06;;;1.06;100.00
19526;BME280;9907;42.676;26.348;2023-01-29T06:38:43;99351.00;;;1.02;100.00
19526;BME280;9907;42.676;26.348;2023-01-29T06:41:10;99346.47;;;1.06;100.00
19526;BME280;9907;42.676;26.348;2023-01-29T06:43:37;99345.66;;;1.04;100.00
19526;BME280;9907;42.676;26.348;2023-01-29T06:46:02;99350.09;;;1.03;100.00
19526;BME280;9907;42.676;26.348;2023-01-29T06:48:28;99348.22;;;1.05;100.00
19526;BME280;9907;42.676;26.348;2023-01-29T06:50:54;99350.81;;;1.07;100.00
19526;BME280;9907;42.676;26.348;2023-01-29T06:53:20;99358.00;;;1.03;100.00
19526;BME280;9907;42.676;26.348;2023-01-29T06:55:52;99354.91;;;0.93;100.00
19526;BME280;9907;42.676;26.348;2023-01-29T06:58:19;99357.88;;;0.86;100.00
19526;BME280;9907;42.676;26.348;2023-01-29T07:00:45;99343.47;;;0.94;100.00
19526;BME280;9907;42.676;26.348;2023-01-29T07:03:10;99353.06;;;0.95;100.00
19526;BME280;9907;42.676;26.348;2023-01-29T07:05:36;99361.44;;;1.04;100.00
19526;BME280;9907;42.676;26.348;2023-01-29T07:08:02;99360.53;;;1.05;100.00
19526;BME280;9907;42.676;26.348;2023-01-29T07:10:28;99359.25;;;1.13;100.00
19526;BME280;9907;42.676;26.348;2023-01-29T07:12:53;99360.31;;;1.28;100.00
19526;BME280;9907;42.676;26.348;2023-01-29T07:15:18;99365.09;;;1.20;100.00
19526;BME280;9907;42.676;26.348;2023-01-29T07:17:59;99365.28;;;1.15;100.00
19526;BME280;9907;42.676;26.348;2023-01-29T07:20:29;99362.91;;;1.11;100.00
19526;BME280;9907;42.676;26.348;2023-01-29T07:22:58;99368.00;;;1.14;100.00
19526;BME280;9907;42.676;26.348;2023-01-29T07:25:24;99363.47;;;1.17;100.00
19526;BME280;9907;42.676;26.348;2023-01-29T07:27:50;99368.00;;;1.14;100.00
19526;BME280;9907;42.676;26.348;2023-01-29T07:30:16;99376.25;;;1.25;100.00
19526;BME280;9907;42.676;26.348;2023-01-29T07:32:42;99373.13;;;1.17;100.00
19526;BME280;9907;42.676;26.348;2023-01-29T07:35:08;99367.34;;;1.09;100.00
19526;BME280;9907;42.676;26.348;2023-01-29T07:37:34;99374.34;;;1.10;100.00
19526;BME280;9907;42.676;26.348;2023-01-29T07:39:59;99373.28;;;1.14;100.00
19526;BME280;9907;42.676;26.348;2023-01-29T07:42:25;99373.28;;;1.14;100.00
19526;BME280;9907;42.676;26.348;2023-01-29T07:44:51;99379.44;;;1.13;100.00
19526;BME280;9907;42.676;26.348;2023-01-29T07:47:16;99376.97;;;1.10;100.00
19526;BME280;9907;42.676;26.348;2023-01-29T07:49:41;99384.66;;;1.14;100.00
19526;BME280;9907;42.676;26.348;2023-01-29T07:52:07;99380.09;;;1.18;100.00
19526;BME280;9907;42.676;26.348;2023-01-29T07:54:32;99383.00;;;1.12;100.00
19526;BME280;9907;42.676;26.348;2023-01-29T07:56:58;99392.91;;;1.07;100.00
19526;BME280;9907;42.676;26.348;2023-01-29T07:59:23;99388.03;;;0.97;100.00
19526;BME280;9907;42.676;26.348;2023-01-29T08:01:49;99391.47;;;1.00;100.00
19526;BME280;9907;42.676;26.348;2023-01-29T08:04:14;99392.91;;;1.07;100.00
19526;BME280;9907;42.676;26.348;2023-01-29T08:06:39;99394.47;;;1.11;100.00
19526;BME280;9907;42.676;26.348;2023-01-29T08:09:05;99388.91;;;1.17;100.00
19526;BME280;9907;42.676;26.348;2023-01-29T08:11:31;99396.16;;;1.12;100.00
19526;BME280;9907;42.676;26.348;2023-01-29T08:13:57;99393.63;;;1.10;100.00
19526;BME280;9907;42.676;26.348;2023-01-29T08:16:22;99405.97;;;1.08;100.00
19526;BME280;9907;42.676;26.348;2023-01-29T08:18:48;99402.47;;;1.08;100.00
19526;BME280;9907;42.676;26.348;2023-01-29T08:21:13;99402.72;;;1.03;100.00
19526;BME280;9907;42.676;26.348;2023-01-29T08:23:39;99400.28;;;0.98;100.00
19526;BME280;9907;42.676;26.348;2023-01-29T08:26:05;99403.09;;;0.94;100.00
19526;BME280;9907;42.676;26.348;2023-01-29T08:28:30;99409.75;;;1.03;100.00
19526;BME280;9907;42.676;26.348;2023-01-29T08:30:56;99411.22;;;1.08;100.00
19526;BME280;9907;42.676;26.348;2023-01-29T08:33:21;99408.53;;;1.10;100.00
19526;BME280;9907;42.676;26.348;2023-01-29T08:35:48;99410.09;;;1.14;100.00
19526;BME280;9907;42.676;26.348;2023-01-29T08:38:15;99413.66;;;1.13;100.00
19526;BME280;9907;42.676;26.348;2023-01-29T08:40:41;99413.50;;;1.16;100.00
19526;BME280;9907;42.676;26.348;2023-01-29T08:43:07;99418.50;;;1.22;100.00
19526;BME280;9907;42.676;26.348;2023-01-29T08:45:34;99409.63;;;1.24;100.00
19526;BME280;9907;42.676;26.348;2023-01-29T08:48:01;99417.81;;;1.18;100.00
19526;BME280;9907;42.676;26.348;2023-01-29T08:50:26;99412.44;;;1.20;100.00
19526;BME280;9907;42.676;26.348;2023-01-29T08:52:57;99413.25;;;1.22;100.00
19526;BME280;9907;42.676;26.348;2023-01-29T08:55:23;99412.81;;;1.31;100.00
19526;BME280;9907;42.676;26.348;2023-01-29T08:57:48;99414.06;;;1.22;100.00
19526;BME280;9907;42.676;26.348;2023-01-29T09:00:14;99416.66;;;1.24;100.00
19526;BME280;9907;42.676;26.348;2023-01-29T09:02:39;99420.72;;;1.31;100.00
19526;BME280;9907;42.676;26.348;2023-01-29T09:05:05;99427.31;;;1.21;100.00
19526;BME280;9907;42.676;26.348;2023-01-29T09:07:32;99428.94;;;1.23;100.00
19526;BME280;9907;42.676;26.348;2023-01-29T09:09:57;99429.75;;;1.25;100.00
19526;BME280;9907;42.676;26.348;2023-01-29T09:12:23;99429.75;;;1.25;100.00
19526;BME280;9907;42.676;26.348;2023-01-29T09:14:48;99427.84;;;1.29;100.00
19526;BME280;9907;42.676;26.348;2023-01-29T09:17:14;99424.13;;;1.33;100.00
19526;BME280;9907;42.676;26.348;2023-01-29T09:19:39;99421.50;;;1.33;100.00
19526;BME280;9907;42.676;26.348;2023-01-29T09:22:05;99421.50;;;1.33;100.00
19526;BME280;9907;42.676;26.348;2023-01-29T09:24:30;99424.06;;;1.34;100.00
19526;BME280;9907;42.676;26.348;2023-01-29T09:26:57;99419.34;;;1.41;100.00
19526;BME280;9907;42.676;26.348;2023-01-29T09:29:22;99422.44;;;1.32;100.00
19526;BME280;9907;42.676;26.348;2023-01-29T09:31:47;99414.72;;;1.27;100.00
19526;BME280;9907;42.676;26.348;2023-01-29T09:34:13;99413.47;;;1.36;100.00
19526;BME280;9907;42.676;26.348;2023-01-29T09:36:38;99407.25;;;1.37;100.00
19526;BME280;9907;42.676;26.348;2023-01-29T09:39:04;99405.72;;;1.33;100.00
19526;BME280;9907;42.676;26.348;2023-01-29T09:41:38;99401.56;;;1.27;100.00
19526;BME280;9907;42.676;26.348;2023-01-29T09:47:16;99404.00;;;1.32;100.00
19526;BME280;9907;42.676;26.348;2023-01-29T09:50:06;99399.25;;;1.40;100.00
19526;BME280;9907;42.676;26.348;2023-01-29T09:55:48;99400.81;;;1.44;100.00
19526;BME280;9907;42.676;26.348;2023-01-29T10:00:48;99399.25;;;1.40;100.00
19526;BME280;9907;42.676;26.348;2023-01-29T10:11:38;99402.78;;;1.58;100.00
19526;BME280;9907;42.676;26.348;2023-01-29T10:14:13;99387.91;;;1.57;100.00
19526;BME280;9907;42.676;26.348;2023-01-29T10:27:13;99384.50;;;1.55;100.00
19526;BME280;9907;42.676;26.348;2023-01-29T10:29:42;99383.63;;;1.54;100.00
19526;BME280;9907;42.676;26.348;2023-01-29T10:32:13;99372.47;;;1.49;100.00
19526;BME280;9907;42.676;26.348;2023-01-29T10:34:44;99377.66;;;1.51;100.00
19526;BME280;9907;42.676;26.348;2023-01-29T10:37:17;99367.84;;;1.54;100.00
19526;BME280;9907;42.676;26.348;2023-01-29T10:39:44;99374.03;;;1.53;100.00
19526;BME280;9907;42.676;26.348;2023-01-29T10:42:23;99365.81;;;1.59;100.00
19526;BME280;9907;42.676;26.348;2023-01-29T10:45:25;99374.19;;;1.50;100.00
19526;BME280;9907;42.676;26.348;2023-01-29T10:48:08;99368.00;;;1.51;100.00
19526;BME280;9907;42.676;26.348;2023-01-29T11:02:35;99355.19;;;1.43;100.00
19526;BME280;9907;42.676;26.348;2023-01-29T11:05:00;99347.84;;;1.50;100.00
19526;BME280;9907;42.676;26.348;2023-01-29T11:07:26;99352.91;;;1.55;100.00
19526;BME280;9907;42.676;26.348;2023-01-29T11:10:13;99344.84;;;1.58;100.00
19526;BME280;9907;42.676;26.348;2023-01-29T11:12:39;99339.66;;;1.56;100.00
19526;BME280;9907;42.676;26.348;2023-01-29T11:15:15;99339.38;;;1.62;100.00
19526;BME280;9907;42.676;26.348;2023-01-29T11:20:27;99338.50;;;1.62;100.00
19526;BME280;9907;42.676;26.348;2023-01-29T11:22:53;99333.94;;;1.65;100.00
19526;BME280;9907;42.676;26.348;2023-01-29T11:25:22;99326.59;;;1.72;100.00
19526;BME280;9907;42.676;26.348;2023-01-29T11:27:54;99327.34;;;1.74;100.00
19526;BME280;9907;42.676;26.348;2023-01-29T11:30:26;99327.50;;;1.71;100.00
19526;BME280;9907;42.676;26.348;2023-01-29T11:33:10;99324.34;;;1.64;100.00
19526;BME280;9907;42.676;26.348;2023-01-29T11:35:37;99314.66;;;1.65;100.00
19526;BME280;9907;42.676;26.348;2023-01-29T11:40:44;99311.81;;;1.69;100.00
19526;BME280;9907;42.676;26.348;2023-01-29T11:45:55;99310.56;;;1.76;100.00
19526;BME280;9907;42.676;26.348;2023-01-29T11:48:53;99300.94;;;1.75;100.00
19526;BME280;9907;42.676;26.348;2023-01-29T11:51:22;99306.69;;;1.83;100.00
19526;BME280;9907;42.676;26.348;2023-01-29T11:53:55;99301.97;;;1.90;100.00
19526;BME280;9907;42.676;26.348;2023-01-29T11:56:38;99302.88;;;1.89;100.00
19526;BME280;9907;42.676;26.348;2023-01-29T12:02:46;99301.81;;;1.93;100.00
19526;BME280;9907;42.676;26.348;2023-01-29T12:05:16;99302.34;;;2.00;100.00
19526;BME280;9907;42.676;26.348;2023-01-29T12:07:45;99295.69;;;1.92;100.00
19526;BME280;9907;42.676;26.348;2023-01-29T12:10:38;99295.84;;;1.89;100.00
19526;BME280;9907;42.676;26.348;2023-01-29T12:15:45;99290.50;;;1.91;100.00
19526;BME280;9907;42.676;26.348;2023-01-29T12:18:31;99295.22;;;2.02;100.00
19526;BME280;9907;42.676;26.348;2023-01-29T12:21:30;99285.75;;;2.15;100.00
19526;BME280;9907;42.676;26.348;2023-01-29T12:27:42;99295.22;;;2.02;100.00
19526;BME280;9907;42.676;26.348;2023-01-29T12:29:53;99292.66;;;2.00;100.00
19526;BME280;9907;42.676;26.348;2023-01-29T12:32:34;99297.94;;;2.00;100.00
19526;BME280;9907;42.676;26.348;2023-01-29T12:35:20;99295.94;;;2.05;100.00
19526;BME280;9907;42.676;26.348;2023-01-29T12:40:24;99295.22;;;2.02;100.00
19526;BME280;9907;42.676;26.348;2023-01-29T12:42:56;99290.78;;;1.85;100.00
19526;BME280;9907;42.676;26.348;2023-01-29T12:45:26;99288.03;;;1.88;100.00
19526;BME280;9907;42.676;26.348;2023-01-29T12:47:59;99296.63;;;1.91;100.00
19526;BME280;9907;42.676;26.348;2023-01-29T12:50:28;99293.84;;;1.94;100.00
19526;BME280;9907;42.676;26.348;2023-01-29T12:53:00;99293.50;;;2.01;100.00
19526;BME280;9907;42.676;26.348;2023-01-29T12:55:44;99291.81;;;2.00;100.00
19526;BME280;9907;42.676;26.348;2023-01-29T12:58:15;99296.78;;;2.06;100.00
19526;BME280;9907;42.676;26.348;2023-01-29T13:00:45;99298.16;;;2.13;100.00
19526;BME280;9907;42.676;26.348;2023-01-29T13:03:24;99299.72;;;2.17;100.00
19526;BME280;9907;42.676;26.348;2023-01-29T13:05:55;99297.09;;;2.17;100.00
19526;BME280;9907;42.676;26.348;2023-01-29T13:08:49;99290.50;;;2.08;100.00
19526;BME280;9907;42.676;26.348;2023-01-29T13:11:34;99295.22;;;2.02;100.00
19526;BME280;9907;42.676;26.348;2023-01-29T13:14:12;99300.19;;;2.08;100.00
19526;BME280;9907;42.676;26.348;2023-01-29T13:16:46;99290.44;;;2.10;100.00
19526;BME280;9907;42.676;26.348;2023-01-29T13:19:32;99295.69;;;1.92;100.00
19526;BME280;9907;42.676;26.348;2023-01-29T13:22:01;99295.63;;;1.94;100.00
19526;BME280;9907;42.676;26.348;2023-01-29T13:24:39;99293.97;;;2.09;100.00
19526;BME280;9907;42.676;26.348;2023-01-29T13:27:06;99301.19;;;2.05;100.00
19526;BME280;9907;42.676;26.348;2023-01-29T13:29:32;99308.19;;;2.06;100.00
19526;BME280;9907;42.676;26.348;2023-01-29T13:32:03;99304.59;;;2.07;100.00
19526;BME280;9907;42.676;26.348;2023-01-29T13:34:30;99310.03;;;2.04;100.00
19526;BME280;9907;42.676;26.348;2023-01-29T13:36:59;99315.00;;;2.10;100.00
19526;BME280;9907;42.676;26.348;2023-01-29T13:39:34;99313.97;;;2.13;100.00
19526;BME280;9907;42.676;26.348;2023-01-29T13:42:14;99306.84;;;2.15;100.00
19526;BME280;9907;42.676;26.348;2023-01-29T13:44:46;99310.97;;;2.03;100.00
19526;BME280;9907;42.676;26.348;2023-01-29T13:47:26;99303.44;;;2.13;100.00
19526;BME280;9907;42.676;26.348;2023-01-29T13:50:38;99304.97;;;2.00;100.00
19526;BME280;9907;42.676;26.348;2023-01-29T13:53:20;99311.97;;;2.01;100.00
19526;BME280;9907;42.676;26.348;2023-01-29T13:55:46;99316.31;;;2.02;100.00
19526;BME280;9907;42.676;26.348;2023-01-29T13:58:15;99314.59;;;2.01;100.00
19526;BME280;9907;42.676;26.348;2023-01-29T14:05:43;99311.50;;;1.92;100.00
19526;BME280;9907;42.676;26.348;2023-01-29T14:10:40;99313.03;;;1.96;100.00
19526;BME280;9907;42.676;26.348;2023-01-29T14:18:45;99325.28;;;1.98;100.00
19526;BME280;9907;42.676;26.348;2023-01-29T14:21:33;99323.41;;;2.00;100.00
19526;BME280;9907;42.676;26.348;2023-01-29T14:24:10;99323.75;;;1.93;100.00
19526;BME280;9907;42.676;26.348;2023-01-29T14:26:43;99321.09;;;1.93;100.00
19526;BME280;9907;42.676;26.348;2023-01-29T14:31:46;99330.41;;;2.01;100.00
19526;BME280;9907;42.676;26.348;2023-01-29T14:36:43;99331.97;;;2.05;100.00
19526;BME280;9907;42.676;26.348;2023-01-29T14:39:35;99334.97;;;1.97;100.00
19526;BME280;9907;42.676;26.348;2023-01-29T14:42:12;99340.34;;;1.95;100.00
19526;BME280;9907;42.676;26.348;2023-01-29T14:44:59;99340.78;;;1.86;100.00
19526;BME280;9907;42.676;26.348;2023-01-29T14:50:00;99338.16;;;1.86;100.00
19526;BME280;9907;42.676;26.348;2023-01-29T14:52:38;99341.69;;;1.85;100.00
19526;BME280;9907;42.676;26.348;2023-01-29T14:55:10;99348.69;;;1.86;100.00
19526;BME280;9907;42.676;26.348;2023-01-29T14:57:40;99347.59;;;1.73;100.00
19526;BME280;9907;42.676;26.348;2023-01-29T15:00:17;99342.94;;;1.78;100.00
19526;BME280;9907;42.676;26.348;2023-01-29T15:02:48;99349.38;;;1.90;100.00
19526;BME280;9907;42.676;26.348;2023-01-29T15:05:19;99349.16;;;1.77;100.00
19526;BME280;9907;42.676;26.348;2023-01-29T15:07:57;99347.59;;;1.90;100.00
19526;BME280;9907;42.676;26.348;2023-01-29T15:10:46;99352.63;;;1.78;100.00
19526;BME280;9907;42.676;26.348;2023-01-29T15:13:41;99351.16;;;1.72;100.00
19526;BME280;9907;42.676;26.348;2023-01-29T15:16:14;99358.84;;;1.77;100.00
19526;BME280;9907;42.676;26.348;2023-01-29T15:18:42;99359.53;;;1.80;100.00
19526;BME280;9907;42.676;26.348;2023-01-29T15:21:12;99362.44;;;1.74;100.00
19526;BME280;9907;42.676;26.348;2023-01-29T15:23:39;99366.81;;;1.75;100.00
19526;BME280;9907;42.676;26.348;2023-01-29T15:26:09;99362.44;;;1.74;100.00
19526;BME280;9907;42.676;26.348;2023-01-29T15:28:37;99370.97;;;1.62;100.00
19526;BME280;9907;42.676;26.348;2023-01-29T15:31:05;99377.16;;;1.61;100.00
19526;BME280;9907;42.676;26.348;2023-01-29T15:33:37;99377.22;;;1.60;100.00